Terminal Aerodrome Forecast
Issued by NWS

Current Version | Previous Version | Text Only | Print | Product List | Glossary Off
Versions: 1 2 3 4 5 6 7 8 9 10 11 12 13 14 15 16 17 18 19 20 21 22 23 24 25 26 27 28 29 30

000
FTUS41 KILN 210500
TAFLUK
TAF
KLUK 210537Z 2106/2206 00000KT P6SM BKN120
     FM211200 21005KT P6SM -SHRA VCTS OVC050CB
      TEMPO 2112/2116 3SM -TSRA BR OVC025CB
     FM211600 23008KT P6SM VCSH SCT050 BKN100
     FM220000 22004KT P6SM SCT100 BKN150=

USA.gov is the U.S. government's official web portal to all federal, state and local government web resources and services.